Time;durP1;ratioP1;P1;durP2;ratioP2;P2;SDS_P1;SDS_P2;PMS_P1;PMS_P2;Temp;Humidity;BMP_temperature;BMP_pressure;BME280_temperature;BME280_humidity;BME280_pressure;Samples;Min_cycle;Max_cycle;Signal;HPM_P1;HPM_P2
2023/06/18 00:00:08;;;;;;;10.40;7.50;;;;;;;16.02;64.20;100235.69;5061074;28;20267;-64
2023/06/18 00:02:35;;;;;;;9.97;7.77;;;;;;;16.29;63.90;100228.22;5059709;28;20218;-64
2023/06/18 00:05:01;;;;;;;12.87;8.63;;;;;;;16.34;62.64;100229.94;5068655;28;20201;-64
2023/06/18 00:07:28;;;;;;;9.93;6.93;;;;;;;16.30;63.28;100238.00;5065148;28;20218;-64
2023/06/18 00:09:54;;;;;;;9.67;7.23;;;;;;;16.18;65.63;100237.28;5067385;28;20210;-64
2023/06/18 00:12:20;;;;;;;9.40;7.23;;;;;;;15.99;64.88;100233.91;5066881;28;20218;-64
2023/06/18 00:14:47;;;;;;;9.50;7.40;;;;;;;15.93;66.09;100232.19;5055317;28;20242;-65
2023/06/18 00:17:13;;;;;;;11.60;7.30;;;;;;;15.87;65.85;100236.72;5063994;28;20623;-64
2023/06/18 00:19:40;;;;;;;13.33;8.07;;;;;;;15.88;66.10;100228.72;5067874;28;20293;-65
2023/06/18 00:22:06;;;;;;;11.90;7.37;;;;;;;15.92;65.94;100226.88;5068137;28;20728;-64
2023/06/18 00:24:35;;;;;;;11.00;7.93;;;;;;;15.97;65.64;100233.94;5049232;28;20286;-64
2023/06/18 00:27:02;;;;;;;12.20;7.90;;;;;;;15.80;66.71;100233.25;5067823;28;20226;-64
2023/06/18 00:29:29;;;;;;;11.50;7.40;;;;;;;15.81;66.68;100228.78;5058207;28;20207;-64
2023/06/18 00:31:56;;;;;;;11.60;7.70;;;;;;;15.84;66.37;100228.75;5064690;28;20222;-64
2023/06/18 00:34:32;;;;;;;8.73;7.30;;;;;;;15.80;66.54;100229.69;5055689;28;20230;-65
2023/06/18 00:37:02;;;;;;;10.30;7.13;;;;;;;15.62;67.38;100229.00;5067370;28;20280;-64
2023/06/18 00:39:29;;;;;;;11.43;7.33;;;;;;;15.45;68.27;100230.00;5067057;28;20689;-65
2023/06/18 00:41:56;;;;;;;12.87;7.63;;;;;;;15.32;69.75;100221.22;5056198;28;20223;-64
2023/06/18 00:44:22;;;;;;;13.17;7.63;;;;;;;15.27;69.68;100223.06;5062587;28;20197;-65
2023/06/18 00:46:51;;;;;;;12.13;7.63;;;;;;;15.14;69.68;100222.25;5068809;28;20431;-65
2023/06/18 00:49:18;;;;;;;13.80;8.60;;;;;;;15.02;70.88;100219.69;5067447;28;20281;-65
2023/06/18 00:51:46;;;;;;;11.30;7.73;;;;;;;14.94;71.35;100219.75;5061957;28;20249;-65
2023/06/18 00:54:14;;;;;;;10.97;7.93;;;;;;;14.88;71.54;100218.91;5069544;28;20224;-65
2023/06/18 00:56:50;;;;;;;13.13;7.77;;;;;;;14.83;71.80;100218.94;5058807;28;20202;-65
2023/06/18 00:59:22;;;;;;;12.07;7.80;;;;;;;14.87;71.56;100220.69;5064224;28;20255;-64
2023/06/18 01:01:52;;;;;;;9.40;7.03;;;;;;;14.84;71.61;100217.16;5060637;28;20214;-64
2023/06/18 01:04:21;;;;;;;10.07;7.73;;;;;;;14.84;72.41;100210.03;5071855;28;20279;-64
2023/06/18 01:06:51;;;;;;;9.87;7.40;;;;;;;14.77;72.71;100215.41;5071772;28;20648;-65
2023/06/18 01:09:24;;;;;;;10.27;7.60;;;;;;;14.72;73.31;100202.09;5065254;28;20229;-66
2023/06/18 01:11:51;;;;;;;8.63;6.90;;;;;;;14.65;72.96;100209.25;5063698;28;20218;-64
2023/06/18 01:14:28;;;;;;;11.27;7.60;;;;;;;14.59;73.80;100211.97;5065640;28;20583;-64
2023/06/18 01:16:57;;;;;;;9.60;7.33;;;;;;;14.68;74.13;100203.03;5068393;28;20248;-65
2023/06/18 01:19:55;;;;;;;10.03;7.30;;;;;;;14.59;74.10;100209.28;5070898;28;20285;-65
2023/06/18 01:22:37;;;;;;;10.13;6.47;;;;;;;14.54;72.97;100212.88;5065754;28;20218;-66
2023/06/18 01:25:06;;;;;;;8.23;6.67;;;;;;;14.44;73.00;100208.50;5057326;28;20207;-65
2023/06/18 01:27:40;;;;;;;9.57;7.03;;;;;;;14.35;73.75;100210.25;5064900;28;20648;-65
2023/06/18 01:30:12;;;;;;;9.87;6.37;;;;;;;14.25;73.86;100224.53;5058412;28;20222;-66
2023/06/18 01:32:39;;;;;;;9.07;6.97;;;;;;;14.14;74.35;100209.50;5060588;28;20710;-66
2023/06/18 01:35:08;;;;;;;13.23;7.40;;;;;;;14.10;75.10;100216.59;5069455;28;20206;-66
2023/06/18 01:37:53;;;;;;;10.23;6.83;;;;;;;14.27;75.52;100212.09;5056040;28;20244;-65
2023/06/18 01:40:22;;;;;;;8.30;6.50;;;;;;;14.31;74.79;100211.19;5066969;28;20212;-66
2023/06/18 01:42:55;;;;;;;10.23;6.80;;;;;;;14.41;73.68;100206.72;5068720;28;20564;-64
2023/06/18 01:45:33;;;;;;;10.60;7.20;;;;;;;14.28;74.13;100210.31;5071017;28;20202;-65
2023/06/18 01:48:04;;;;;;;8.57;6.67;;;;;;;14.30;75.16;100216.50;5067301;28;20729;-65
2023/06/18 01:50:34;;;;;;;11.93;7.20;;;;;;;14.37;75.14;100207.59;5061200;28;20264;-65
2023/06/18 01:53:03;;;;;;;10.30;7.30;;;;;;;14.41;74.69;100212.94;5069048;28;20213;-65
2023/06/18 01:55:33;;;;;;;9.63;7.40;;;;;;;14.37;75.43;100203.16;5069699;28;20212;-64
2023/06/18 01:58:00;;;;;;;8.70;7.03;;;;;;;14.51;75.24;100208.47;5069046;28;20217;-64
2023/06/18 02:00:27;;;;;;;10.70;7.27;;;;;;;14.62;75.29;100197.72;5052467;28;20194;-66
2023/06/18 02:02:53;;;;;;;8.50;6.37;;;;;;;14.66;73.62;100200.38;5067935;28;20222;-66
2023/06/18 02:05:20;;;;;;;9.57;7.00;;;;;;;14.65;74.25;100198.59;5060334;28;20206;-65
2023/06/18 02:07:46;;;;;;;13.03;7.07;;;;;;;14.67;73.84;100196.81;5062448;28;20214;-66
2023/06/18 02:10:13;;;;;;;10.07;7.20;;;;;;;14.69;71.94;100197.69;5069732;28;20204;-66
2023/06/18 02:12:39;;;;;;;9.57;7.13;;;;;;;14.55;73.00;100201.34;5050169;28;20210;-65
2023/06/18 02:15:06;;;;;;;9.50;6.50;;;;;;;14.44;72.24;100197.84;5069030;28;20576;-65
2023/06/18 02:17:32;;;;;;;8.40;6.77;;;;;;;14.29;73.61;100201.41;5058160;28;20287;-66
2023/06/18 02:19:59;;;;;;;8.70;6.63;;;;;;;14.16;74.43;100197.94;5056591;28;20195;-66
2023/06/18 02:22:26;;;;;;;8.00;6.13;;;;;;;14.05;75.39;100205.97;5070022;28;20232;-66
2023/06/18 02:24:53;;;;;;;10.63;7.07;;;;;;;13.96;75.83;100205.09;5069087;28;20226;-66
2023/06/18 02:27:21;;;;;;;10.97;6.83;;;;;;;13.85;77.15;100207.81;5067512;28;20214;-65
2023/06/18 02:29:48;;;;;;;9.20;6.97;;;;;;;13.76;77.35;100213.16;5068723;28;21594;-65
2023/06/18 02:32:14;;;;;;;10.87;7.10;;;;;;;13.68;77.41;100210.53;5062811;28;20222;-65
2023/06/18 02:34:41;;;;;;;8.63;6.20;;;;;;;13.70;77.61;100211.41;5061909;28;20576;-66
2023/06/18 02:37:08;;;;;;;8.80;6.53;;;;;;;13.64;77.98;100214.09;5067786;28;20213;-66
2023/06/18 02:39:34;;;;;;;8.90;6.33;;;;;;;13.58;78.03;100210.50;5059275;28;20217;-66
2023/06/18 02:42:01;;;;;;;9.30;6.80;;;;;;;13.58;79.13;100202.53;5056489;28;20219;-64
2023/06/18 02:44:31;;;;;;;8.53;6.40;;;;;;;13.61;80.09;100206.09;5066062;28;20209;-67
2023/06/18 02:46:58;;;;;;;10.33;6.57;;;;;;;13.66;78.49;100206.09;5041934;28;20218;-65
2023/06/18 02:49:24;;;;;;;11.47;6.57;;;;;;;13.64;77.49;100202.56;5068334;28;20216;-66
2023/06/18 02:51:51;;;;;;;8.53;6.33;;;;;;;13.63;78.89;100201.66;5065915;28;20221;-66
2023/06/18 02:54:17;;;;;;;10.10;7.27;;;;;;;13.63;80.23;100198.13;5069516;28;20201;-65
2023/06/18 02:56:44;;;;;;;8.27;6.50;;;;;;;13.61;81.61;100197.19;5062991;28;20204;-65
2023/06/18 02:59:10;;;;;;;9.67;7.03;;;;;;;13.51;82.51;100201.66;5054753;28;20199;-65
2023/06/18 03:01:37;;;;;;;11.03;7.63;;;;;;;13.45;83.06;100204.34;5069625;28;20224;-66
2023/06/18 03:04:03;;;;;;;10.30;6.80;;;;;;;13.39;84.57;100197.25;5070577;28;20229;-65
2023/06/18 03:06:30;;;;;;;8.07;6.80;;;;;;;13.43;85.59;100195.47;5068285;28;20297;-66
2023/06/18 03:08:56;;;;;;;9.53;6.93;;;;;;;13.45;85.48;100199.91;5066436;28;20269;-65
2023/06/18 03:11:23;;;;;;;9.40;7.47;;;;;;;13.50;85.19;100199.88;5065892;28;20217;-65
2023/06/18 03:13:51;;;;;;;9.40;6.80;;;;;;;13.46;85.15;100207.00;5060006;28;20201;-65
2023/06/18 03:16:17;;;;;;;11.93;6.73;;;;;;;13.41;85.83;100214.09;5068161;28;20204;-65
2023/06/18 03:18:46;;;;;;;11.00;7.37;;;;;;;13.41;86.17;100211.44;5066428;28;20240;-65
2023/06/18 03:21:12;;;;;;;8.03;6.50;;;;;;;13.54;85.82;100216.72;5068796;28;20233;-65
2023/06/18 03:23:38;;;;;;;9.33;6.90;;;;;;;13.58;85.11;100219.38;5064456;28;20287;-67
2023/06/18 03:26:06;;;;;;;10.40;7.13;;;;;;;13.61;86.12;100218.50;5057473;28;20642;-66
2023/06/18 03:28:32;;;;;;;10.43;7.07;;;;;;;13.70;85.30;100210.53;5062266;28;20302;-65
2023/06/18 03:30:59;;;;;;;9.37;6.70;;;;;;;13.73;85.79;100219.38;5068367;28;20292;-67
2023/06/18 03:33:29;;;;;;;10.47;7.07;;;;;;;13.80;85.21;100226.44;5069865;28;20206;-65
2023/06/18 03:36:00;;;;;;;9.43;6.80;;;;;;;13.81;84.62;100216.69;5061604;28;20198;-67
2023/06/18 03:38:29;;;;;;;10.47;6.97;;;;;;;13.87;84.49;100221.09;5058345;28;20196;-67
2023/06/18 03:40:56;;;;;;;10.20;6.63;;;;;;;13.87;84.66;100223.78;5059259;28;20202;-65
2023/06/18 03:43:22;;;;;;;10.20;7.57;;;;;;;13.88;85.08;100225.53;5067597;28;20197;-65
2023/06/18 03:45:49;;;;;;;10.50;6.87;;;;;;;13.97;85.32;100223.72;5064190;28;20205;-67
2023/06/18 03:48:15;;;;;;;10.73;7.30;;;;;;;14.04;84.85;100219.31;5061577;28;20209;-65
2023/06/18 03:50:42;;;;;;;10.53;7.20;;;;;;;14.11;84.65;100218.38;5062102;28;20457;-67
2023/06/18 03:53:08;;;;;;;13.03;7.40;;;;;;;14.24;84.39;100221.88;5059571;28;20730;-65
2023/06/18 03:55:35;;;;;;;8.93;7.50;;;;;;;14.49;84.03;100230.69;5069217;28;20202;-65
2023/06/18 03:58:01;;;;;;;11.00;7.13;;;;;;;14.70;82.06;100226.09;5068557;28;20282;-66
2023/06/18 04:00:28;;;;;;;9.97;7.60;;;;;;;14.97;80.36;100224.16;5058185;28;20198;-65
2023/06/18 04:02:54;;;;;;;11.63;7.37;;;;;;;15.11;79.81;100232.06;5059128;28;20325;-67
2023/06/18 04:05:21;;;;;;;10.40;7.10;;;;;;;15.08;79.05;100226.75;5068670;28;20666;-65
2023/06/18 04:07:48;;;;;;;10.13;6.90;;;;;;;15.14;78.45;100234.69;5068706;28;20574;-66
2023/06/18 04:10:14;;;;;;;8.70;7.17;;;;;;;15.15;78.32;100231.13;5064074;28;20217;-65
2023/06/18 04:12:41;;;;;;;10.77;7.10;;;;;;;15.24;77.66;100236.41;5064314;28;20570;-66
2023/06/18 04:15:09;;;;;;;12.73;7.40;;;;;;;15.34;76.64;100230.97;5060686;28;20230;-65
2023/06/18 04:17:39;;;;;;;9.37;6.93;;;;;;;15.36;76.70;100222.97;5062709;28;20197;-65
2023/06/18 04:20:08;;;;;;;8.33;6.63;;;;;;;15.51;76.46;100233.50;5067166;28;20202;-66
2023/06/18 04:22:34;;;;;;;12.10;6.90;;;;;;;15.51;76.40;100224.59;5068361;28;20222;-66
2023/06/18 04:25:01;;;;;;;8.80;7.17;;;;;;;15.54;76.16;100232.56;5068333;28;20698;-66
2023/06/18 04:27:27;;;;;;;10.13;7.00;;;;;;;15.59;75.87;100222.75;5059077;28;20219;-65
2023/06/18 04:29:53;;;;;;;8.67;6.67;;;;;;;15.66;74.38;100229.84;5061583;28;20202;-65
2023/06/18 04:32:20;;;;;;;10.83;6.80;;;;;;;15.72;73.82;100231.56;5071053;28;20222;-64
2023/06/18 04:34:46;;;;;;;8.50;6.73;;;;;;;15.80;74.25;100230.56;5070488;28;20198;-66
2023/06/18 04:37:13;;;;;;;9.13;7.00;;;;;;;15.89;74.39;100235.81;5072154;28;20206;-64
2023/06/18 04:39:39;;;;;;;8.57;6.80;;;;;;;15.98;73.59;100234.81;5071315;28;20199;-66
2023/06/18 04:42:05;;;;;;;11.57;7.07;;;;;;;16.07;73.17;100234.75;5057753;28;20214;-64
2023/06/18 04:44:32;;;;;;;8.83;6.70;;;;;;;16.17;73.66;100239.06;5065344;28;20200;-65
2023/06/18 04:46:59;;;;;;;9.87;7.57;;;;;;;16.25;73.42;100236.31;5071967;28;20277;-65
2023/06/18 04:49:25;;;;;;;9.00;7.37;;;;;;;16.32;73.39;100227.28;5072038;28;21168;-64
2023/06/18 04:51:51;;;;;;;9.67;7.23;;;;;;;16.45;73.51;100236.06;5070046;28;20264;-65
2023/06/18 04:54:18;;;;;;;7.40;6.33;;;;;;;16.56;73.37;100234.13;5061267;28;20194;-66
2023/06/18 04:56:45;;;;;;;10.07;7.43;;;;;;;16.68;73.13;100230.44;5064925;28;20194;-65
2023/06/18 04:59:11;;;;;;;9.07;7.47;;;;;;;16.86;73.13;100232.84;5070933;28;20459;-64
2023/06/18 05:01:38;;;;;;;9.53;6.80;;;;;;;16.95;73.51;100235.38;5067598;28;20261;-64
2023/06/18 05:04:04;;;;;;;10.47;7.90;;;;;;;17.07;73.15;100234.31;5072098;28;20202;-64
2023/06/18 05:06:31;;;;;;;9.30;7.77;;;;;;;17.18;73.59;100230.53;5070824;28;20678;-64
2023/06/18 05:08:57;;;;;;;10.17;7.63;;;;;;;17.39;73.06;100229.31;5061536;28;20593;-64
2023/06/18 05:11:24;;;;;;;12.30;7.17;;;;;;;17.50;72.77;100237.16;5063106;28;20220;-64
2023/06/18 05:13:50;;;;;;;11.77;7.20;;;;;;;17.68;72.80;100244.03;5072157;28;20205;-65
2023/06/18 05:16:17;;;;;;;12.97;7.67;;;;;;;17.73;72.48;100240.38;5071322;28;20202;-64
2023/06/18 05:18:43;;;;;;;10.73;7.87;;;;;;;17.87;71.32;100237.41;5069092;28;20724;-64
2023/06/18 05:21:09;;;;;;;10.50;7.57;;;;;;;17.90;71.36;100236.47;5063105;28;20230;-64
2023/06/18 05:23:36;;;;;;;9.30;7.43;;;;;;;17.92;71.79;100240.00;5057782;28;20205;-64
2023/06/18 05:26:02;;;;;;;12.23;7.83;;;;;;;18.05;71.68;100237.09;5071239;28;20277;-64
2023/06/18 05:28:29;;;;;;;11.17;8.03;;;;;;;18.13;72.02;100235.13;5066144;28;20221;-64
2023/06/18 05:30:55;;;;;;;11.90;8.30;;;;;;;18.36;71.96;100228.41;5070513;28;20206;-63
2023/06/18 05:33:21;;;;;;;12.30;8.20;;;;;;;18.96;68.98;100230.69;5068190;28;20560;-64
2023/06/18 05:35:48;;;;;;;10.20;7.57;;;;;;;19.05;68.17;100228.66;5058141;28;20690;-64
2023/06/18 05:38:14;;;;;;;10.10;8.23;;;;;;;18.92;68.60;100223.63;5061820;28;20286;-64
2023/06/18 05:40:41;;;;;;;8.83;7.57;;;;;;;18.96;67.80;100228.88;5069992;28;20273;-64
2023/06/18 05:43:07;;;;;;;11.27;7.40;;;;;;;18.93;68.94;100239.69;5068878;28;20593;-64
2023/06/18 05:45:34;;;;;;;12.93;8.10;;;;;;;18.89;68.48;100232.63;5071001;28;20198;-64
2023/06/18 05:48:01;;;;;;;11.30;8.73;;;;;;;18.92;68.70;100243.31;5062578;28;20238;-64
2023/06/18 05:50:27;;;;;;;13.47;8.60;;;;;;;18.96;68.90;100242.31;5054769;28;20198;-64
2023/06/18 05:52:53;;;;;;;12.23;8.53;;;;;;;19.05;68.74;100246.56;5069327;28;20269;-64
2023/06/18 05:55:20;;;;;;;11.10;8.33;;;;;;;19.15;67.98;100234.69;5070479;28;20639;-64
2023/06/18 05:57:47;;;;;;;10.60;8.17;;;;;;;19.44;66.05;100242.03;5070298;28;20186;-64
2023/06/18 06:00:14;;;;;;;11.80;7.30;;;;;;;19.42;64.70;100244.75;5053917;28;20233;-64
2023/06/18 06:02:40;;;;;;;9.07;7.20;;;;;;;19.33;64.98;100249.50;5063991;28;20217;-64
2023/06/18 06:05:07;;;;;;;9.23;7.23;;;;;;;19.22;64.78;100248.88;5069583;28;20198;-64
2023/06/18 06:07:34;;;;;;;10.50;8.23;;;;;;;19.24;65.73;100247.91;5070230;28;20224;-64
2023/06/18 06:10:01;;;;;;;10.50;7.50;;;;;;;19.42;65.39;100250.13;5064965;28;20206;-64
2023/06/18 06:12:29;;;;;;;9.50;7.00;;;;;;;19.62;64.58;100248.78;5063856;28;20217;-64
2023/06/18 06:14:58;;;;;;;9.77;7.67;;;;;;;19.71;63.89;100254.81;5060292;28;20195;-64
2023/06/18 06:17:24;;;;;;;9.80;7.27;;;;;;;19.76;63.34;100245.75;5061941;28;20222;-64
2023/06/18 06:19:51;;;;;;;8.87;6.97;;;;;;;19.87;63.60;100251.69;5070275;28;20238;-64
2023/06/18 06:22:17;;;;;;;9.07;6.93;;;;;;;20.07;63.12;100253.88;5069926;28;20305;-64
2023/06/18 06:24:44;;;;;;;14.57;7.70;;;;;;;20.28;62.15;100250.56;5069456;28;20277;-64
2023/06/18 06:27:11;;;;;;;9.40;7.40;;;;;;;20.50;61.46;100237.41;5060508;28;20203;-64
2023/06/18 06:29:38;;;;;;;8.67;7.30;;;;;;;20.70;60.98;100247.56;5053030;28;20215;-64
2023/06/18 06:32:05;;;;;;;9.40;7.13;;;;;;;20.81;60.91;100242.72;5052644;28;20298;-64
2023/06/18 06:34:34;;;;;;;9.83;6.53;;;;;;;21.02;59.88;100239.38;5064504;28;20282;-64
2023/06/18 06:37:01;;;;;;;8.47;7.10;;;;;;;21.08;59.19;100244.56;5059569;28;20210;-64
2023/06/18 06:39:27;;;;;;;13.97;8.07;;;;;;;21.07;59.46;100242.81;5050350;28;20693;-64
2023/06/18 06:41:54;;;;;;;10.40;7.57;;;;;;;21.05;60.30;100254.56;5054620;28;20222;-64
2023/06/18 06:44:20;;;;;;;9.97;7.80;;;;;;;20.96;63.00;100244.97;5054431;28;20198;-64
2023/06/18 06:46:47;;;;;;;9.48;6.95;;;;;;;21.16;62.66;100253.28;5052130;28;20202;-64
2023/06/18 06:49:13;;;;;;;10.40;7.30;;;;;;;21.30;61.97;100262.78;5059345;28;20218;-64
2023/06/18 06:51:39;;;;;;;9.03;7.67;;;;;;;21.40;61.27;100257.03;5067150;28;20694;-64
2023/06/18 06:54:06;;;;;;;11.02;7.57;;;;;;;21.59;60.42;100251.88;5069037;28;20277;-64
2023/06/18 06:56:32;;;;;;;12.15;6.93;;;;;;;21.77;60.05;100259.38;5063332;28;20627;-65
2023/06/18 06:58:59;;;;;;;10.00;7.20;;;;;;;21.98;59.32;100262.22;5050419;28;20222;-64
2023/06/18 07:01:26;;;;;;;9.73;7.80;;;;;;;22.03;58.96;100261.19;5049698;28;20246;-64
2023/06/18 07:03:53;;;;;;;9.27;7.60;;;;;;;22.22;58.12;100255.13;5063879;28;20204;-64
2023/06/18 07:06:20;;;;;;;7.68;6.85;;;;;;;22.58;57.10;100251.06;5067319;28;20194;-64
2023/06/18 07:08:46;;;;;;;13.77;8.32;;;;;;;23.09;54.28;100252.69;5068462;28;20214;-64
2023/06/18 07:11:13;;;;;;;12.77;7.82;;;;;;;24.76;49.49;100249.03;5059600;28;20326;-64
2023/06/18 07:13:39;;;;;;;13.00;7.60;;;;;;;27.22;43.03;100254.31;5069589;28;20569;-64
2023/06/18 07:16:05;;;;;;;11.77;7.90;;;;;;;28.89;38.36;100251.41;5061775;28;20225;-65
2023/06/18 07:18:32;;;;;;;11.02;8.18;;;;;;;29.63;36.15;100259.25;5056130;28;20226;-64
2023/06/18 07:20:58;;;;;;;9.85;7.90;;;;;;;30.34;34.42;100263.47;5064435;28;20678;-64
2023/06/18 07:23:24;;;;;;;15.63;8.40;;;;;;;31.09;33.54;100258.06;5069755;28;20198;-64
2023/06/18 07:25:51;;;;;;;15.43;8.70;;;;;;;31.29;32.25;100265.72;5067565;28;20195;-64
2023/06/18 07:28:17;;;;;;;12.07;7.85;;;;;;;31.40;31.39;100265.78;5069329;28;20225;-64
2023/06/18 07:30:44;;;;;;;8.68;7.25;;;;;;;32.00;31.60;100253.88;5068213;28;20198;-64
2023/06/18 07:33:10;;;;;;;13.82;8.18;;;;;;;31.79;31.18;100261.03;5064043;28;20586;-64
2023/06/18 07:35:37;;;;;;;9.80;8.00;;;;;;;32.13;30.81;100256.56;5062174;28;20190;-64
2023/06/18 07:38:03;;;;;;;10.20;7.45;;;;;;;32.37;30.09;100243.69;5051145;28;20198;-64
2023/06/18 07:40:33;;;;;;;8.20;7.18;;;;;;;32.38;30.36;100245.41;5066338;28;20658;-64
2023/06/18 07:43:01;;;;;;;15.25;8.00;;;;;;;32.46;29.66;100242.09;5063509;28;20222;-64
2023/06/18 07:45:27;;;;;;;14.13;8.30;;;;;;;32.88;28.86;100246.00;5066472;28;20202;-64
2023/06/18 07:47:53;;;;;;;13.30;8.05;;;;;;;32.78;29.23;100253.22;5067147;28;20194;-64
2023/06/18 07:50:21;;;;;;;12.93;8.60;;;;;;;33.20;28.68;100246.06;5060839;28;20224;-64
2023/06/18 07:52:48;;;;;;;9.90;7.30;;;;;;;32.80;29.14;100258.56;5068084;28;20713;-64
2023/06/18 07:55:15;;;;;;;11.05;7.95;;;;;;;33.10;28.04;100246.97;5068526;28;20200;-64
2023/06/18 07:57:41;;;;;;;10.95;8.40;;;;;;;32.99;28.14;100248.72;5066372;28;20280;-64
2023/06/18 08:00:08;;;;;;;10.95;8.25;;;;;;;31.58;30.36;100243.47;5062205;28;20197;-64
2023/06/18 08:02:35;;;;;;;13.00;7.75;;;;;;;31.87;29.94;100246.75;5069035;28;20237;-64
2023/06/18 08:05:01;;;;;;;12.32;7.75;;;;;;;32.14;30.20;100241.88;5071893;28;20584;-64
2023/06/18 08:07:28;;;;;;;9.30;7.82;;;;;;;32.80;27.97;100239.38;5070489;28;20240;-64
2023/06/18 08:09:54;;;;;;;9.25;7.40;;;;;;;33.06;28.76;100235.38;5067201;28;20724;-64
2023/06/18 08:12:20;;;;;;;8.52;6.75;;;;;;;33.01;28.75;100241.25;5072193;28;20297;-64
2023/06/18 08:14:47;;;;;;;10.95;8.15;;;;;;;32.24;29.15;100248.34;5071439;28;20213;-64
2023/06/18 08:17:16;;;;;;;8.93;6.55;;;;;;;32.57;25.79;100246.72;5064110;28;20829;-64
2023/06/18 08:19:45;;;;;;;8.07;6.63;;;;;;;32.31;25.12;100240.56;5062939;28;20198;-64
2023/06/18 08:22:12;;;;;;;8.48;6.32;;;;;;;32.13;25.64;100239.25;5070515;28;20228;-64
2023/06/18 08:24:38;;;;;;;7.25;6.20;;;;;;;32.03;25.49;100236.34;5065716;28;20212;-64
2023/06/18 08:27:05;;;;;;;9.07;6.90;;;;;;;31.82;25.98;100236.16;5071751;28;20678;-64
2023/06/18 08:29:32;;;;;;;9.80;6.50;;;;;;;30.54;27.86;100237.44;5069359;28;20265;-65
2023/06/18 08:32:04;;;;;;;7.20;6.50;;;;;;;30.42;27.99;100236.47;5070863;28;20214;-64
2023/06/18 08:34:32;;;;;;;7.70;6.70;;;;;;;29.92;28.25;100234.53;5063900;28;20198;-64
2023/06/18 08:36:59;;;;;;;8.20;6.43;;;;;;;29.61;28.96;100228.44;5068312;28;20281;-64
2023/06/18 08:39:29;;;;;;;9.73;6.63;;;;;;;29.22;29.21;100231.97;5070269;28;20195;-64
2023/06/18 08:42:00;;;;;;;8.85;6.50;;;;;;;28.69;30.40;100227.25;5072420;28;20225;-64
2023/06/18 08:44:27;;;;;;;8.45;6.65;;;;;;;28.30;30.86;100223.34;5067734;28;20210;-64
2023/06/18 08:46:59;;;;;;;9.43;6.85;;;;;;;28.22;32.20;100216.59;5071126;28;20198;-64
2023/06/18 08:49:27;;;;;;;8.52;7.03;;;;;;;28.27;31.08;100209.91;5071441;28;20218;-64
2023/06/18 08:51:56;;;;;;;7.85;6.60;;;;;;;28.23;31.37;100219.22;5070706;28;20599;-64
2023/06/18 08:54:27;;;;;;;7.82;6.82;;;;;;;28.12;31.92;100215.41;5072047;28;20202;-64
2023/06/18 08:57:22;;;;;;;8.23;6.82;;;;;;;28.18;31.71;100217.75;5071468;28;20202;-65
2023/06/18 08:59:49;;;;;;;9.80;7.60;;;;;;;28.06;32.29;100206.66;5052330;28;20190;-64
2023/06/18 09:02:18;;;;;;;10.38;6.47;;;;;;;28.40;32.52;100210.88;5068210;28;20217;-64
2023/06/18 09:04:45;;;;;;;8.55;7.00;;;;;;;28.59;32.25;100209.72;5070241;28;20201;-64
2023/06/18 09:07:12;;;;;;;8.68;6.75;;;;;;;28.93;31.39;100203.88;5072193;28;20205;-64
2023/06/18 09:09:38;;;;;;;9.57;6.15;;;;;;;28.87;30.52;100207.03;5064268;28;20251;-64
2023/06/18 09:12:05;;;;;;;7.72;6.47;;;;;;;29.02;30.50;100205.13;5069447;28;20281;-64
2023/06/18 09:14:31;;;;;;;7.97;7.00;;;;;;;28.95;30.62;100207.38;5070473;28;20201;-64
2023/06/18 09:16:58;;;;;;;7.80;6.18;;;;;;;29.16;29.94;100202.34;5071760;28;20229;-64
2023/06/18 09:19:25;;;;;;;7.28;6.22;;;;;;;29.41;29.46;100206.19;5069503;28;20194;-64
2023/06/18 09:21:52;;;;;;;9.25;6.82;;;;;;;29.74;29.66;100208.50;5071052;28;20226;-64
2023/06/18 09:24:22;;;;;;;7.45;6.45;;;;;;;30.08;27.76;100204.34;5067745;28;20202;-64
2023/06/18 09:27:03;;;;;;;7.90;6.82;;;;;;;30.31;28.43;100203.56;5069359;28;20836;-64
2023/06/18 09:29:33;;;;;;;10.52;6.82;;;;;;;30.47;28.01;100206.09;5069269;28;21072;-64
2023/06/18 09:32:29;;;;;;;7.38;6.57;;;;;;;30.54;27.51;100208.25;5069428;28;20233;-64
2023/06/18 09:34:56;;;;;;;7.53;6.75;;;;;;;30.43;27.89;100199.09;5050918;28;20229;-63
2023/06/18 09:37:26;;;;;;;7.60;6.80;;;;;;;30.59;28.66;100201.59;5064872;28;20288;-64
2023/06/18 09:39:53;;;;;;;7.90;6.43;;;;;;;30.71;28.29;100189.78;5071316;28;20194;-63
2023/06/18 09:42:28;;;;;;;7.93;6.80;;;;;;;30.51;29.26;100193.94;5068967;28;20245;-64
2023/06/18 09:44:55;;;;;;;8.52;6.90;;;;;;;30.49;29.10;100194.06;5069067;28;20757;-64
2023/06/18 09:47:23;;;;;;;9.73;7.18;;;;;;;30.42;28.86;100184.56;5067711;28;20210;-64
2023/06/18 09:49:49;;;;;;;7.68;6.18;;;;;;;30.64;27.87;100186.63;5069592;28;20224;-63
2023/06/18 09:52:15;;;;;;;8.23;6.80;;;;;;;30.71;27.13;100192.50;5070392;28;20640;-63
2023/06/18 09:54:43;;;;;;;8.73;6.70;;;;;;;30.84;26.85;100179.69;5052246;28;20286;-64
2023/06/18 09:57:12;;;;;;;7.70;6.70;;;;;;;31.02;25.99;100192.00;5069608;28;20251;-64
2023/06/18 09:59:41;;;;;;;9.25;7.30;;;;;;;31.21;25.87;100186.03;5067648;28;20197;-64
2023/06/18 10:02:17;;;;;;;8.15;6.70;;;;;;;31.36;25.97;100176.69;5067824;28;20245;-64
2023/06/18 10:04:43;;;;;;;7.72;6.93;;;;;;;31.29;25.64;100180.00;5052299;28;20198;-64
2023/06/18 10:07:15;;;;;;;10.70;7.70;;;;;;;31.31;27.01;100178.03;5071028;28;20198;-64
2023/06/18 10:09:48;;;;;;;9.13;7.95;;;;;;;31.39;27.12;100179.19;5069770;28;20218;-64
2023/06/18 10:12:15;;;;;;;9.13;7.07;;;;;;;31.39;26.83;100176.44;5067704;28;20222;-64
2023/06/18 10:14:42;;;;;;;8.48;6.90;;;;;;;31.32;27.34;100168.81;5063731;28;20198;-64
2023/06/18 10:17:28;;;;;;;10.95;7.65;;;;;;;31.46;26.85;100174.09;5070317;28;20202;-64
2023/06/18 10:20:03;;;;;;;8.18;7.25;;;;;;;31.46;26.58;100168.63;5064402;28;20222;-64
2023/06/18 10:22:34;;;;;;;10.60;7.20;;;;;;;31.60;26.77;100170.28;5069608;28;20252;-64
2023/06/18 10:25:03;;;;;;;9.15;7.07;;;;;;;31.69;26.58;100169.59;5069593;28;20202;-64
2023/06/18 10:27:30;;;;;;;9.32;7.95;;;;;;;31.62;26.47;100163.72;5066418;28;20281;-64
2023/06/18 10:29:57;;;;;;;8.32;6.72;;;;;;;31.70;26.10;100163.13;5065482;28;20228;-64
2023/06/18 10:32:25;;;;;;;15.18;7.13;;;;;;;31.79;25.92;100151.47;5067923;28;20539;-64
2023/06/18 10:38:40;;;;;;;13.23;7.70;;;;;;;31.74;25.77;100159.19;5052730;28;20224;-64
2023/06/18 10:41:11;;;;;;;8.63;6.80;;;;;;;31.88;24.88;100149.88;5061636;28;20226;-64
2023/06/18 10:43:41;;;;;;;8.98;6.70;;;;;;;31.87;24.36;100154.47;5068146;28;20206;-64
2023/06/18 10:46:09;;;;;;;7.65;6.95;;;;;;;31.81;25.14;100148.63;5063316;28;20620;-64
2023/06/18 10:48:38;;;;;;;8.48;7.05;;;;;;;31.95;25.05;100148.38;5066230;28;20191;-64
2023/06/18 10:51:18;;;;;;;8.05;6.57;;;;;;;32.13;25.52;100146.94;5069596;28;20201;-64
2023/06/18 10:53:45;;;;;;;8.10;6.80;;;;;;;32.26;24.26;100142.25;5069209;28;20198;-64
2023/06/18 10:56:15;;;;;;;8.15;7.25;;;;;;;32.25;24.68;100142.38;5059158;28;20225;-64
2023/06/18 10:58:42;;;;;;;8.23;7.28;;;;;;;32.40;23.99;100141.97;5068634;28;20245;-63
2023/06/18 11:01:25;;;;;;;7.97;7.03;;;;;;;32.52;22.89;100140.13;5066187;28;20218;-64
2023/06/18 11:04:05;;;;;;;7.32;6.57;;;;;;;32.50;23.31;100139.38;5066837;28;20196;-64
2023/06/18 11:06:32;;;;;;;8.13;7.15;;;;;;;32.57;23.91;100135.13;5065882;28;20658;-64
2023/06/18 11:08:58;;;;;;;7.93;6.85;;;;;;;32.73;23.33;100132.00;5069340;28;20218;-64
2023/06/18 11:11:25;;;;;;;10.65;9.23;;;;;;;32.53;22.12;100130.91;5066560;28;20249;-64
2023/06/18 11:13:53;;;;;;;7.65;6.90;;;;;;;32.34;22.14;100122.44;5059886;28;20190;-64
2023/06/18 11:16:22;;;;;;;7.45;6.63;;;;;;;32.50;21.93;100122.06;5068942;28;20646;-64
2023/06/18 11:18:50;;;;;;;7.55;6.28;;;;;;;32.62;22.52;100119.19;5069491;28;20198;-64
2023/06/18 11:21:19;;;;;;;7.90;6.28;;;;;;;32.05;21.35;100119.28;5087571;22;20222;-66
2023/06/18 11:23:47;;;;;;;7.68;5.78;;;;;;;31.90;21.29;100109.53;5057392;28;20861;-67
2023/06/18 11:26:17;;;;;;;8.70;6.60;;;;;;;31.92;21.16;100113.03;5063971;28;20201;-67
2023/06/18 11:28:45;;;;;;;7.18;6.47;;;;;;;32.00;21.09;100114.16;5067221;28;20194;-67